createdAt,value
2023-05-15T00:00:00.682Z,5.1
2023-05-15T00:10:00.587Z,5.5
2023-05-15T00:20:00.637Z,4.6
2023-05-15T00:30:00.600Z,6.7
2023-05-15T00:40:00.618Z,6.2
2023-05-15T00:50:01.929Z,6.5
2023-05-15T01:00:00.625Z,5.0
2023-05-15T01:10:00.703Z,4.5
2023-05-15T01:20:00.839Z,5.2
2023-05-15T01:30:00.624Z,5.7
2023-05-15T01:40:00.604Z,6.9
2023-05-15T01:50:00.606Z,7.2
2023-05-15T02:00:00.607Z,9.4
2023-05-15T02:10:00.581Z,12.0
2023-05-15T02:20:00.760Z,11.2
2023-05-15T02:30:00.624Z,11.5
2023-05-15T02:40:00.587Z,12.5
2023-05-15T02:50:00.658Z,13.0
2023-05-15T03:00:00.666Z,12.9
2023-05-15T03:10:00.598Z,13.4
2023-05-15T03:20:00.585Z,14.2
2023-05-15T03:30:00.669Z,12.0
2023-05-15T03:40:00.617Z,11.9
2023-05-15T03:50:00.599Z,11.8
2023-05-15T04:00:00.601Z,10.7
2023-05-15T04:10:00.619Z,10.6
2023-05-15T04:20:00.614Z,10.0
2023-05-15T04:30:00.698Z,12.2
2023-05-15T04:40:00.597Z,10.8
2023-05-15T04:50:00.686Z,11.4
2023-05-15T05:00:00.597Z,11.6
2023-05-15T05:10:00.599Z,13.4
2023-05-15T05:20:00.618Z,11.4
2023-05-15T05:30:00.614Z,10.9
2023-05-15T05:40:00.684Z,10.4
2023-05-15T05:50:00.614Z,9.4
2023-05-15T06:00:00.583Z,9.4
2023-05-15T06:10:00.732Z,9.6
2023-05-15T06:20:00.604Z,8.2
2023-05-15T06:30:00.604Z,7.2
2023-05-15T06:40:00.616Z,7.0
2023-05-15T06:50:00.697Z,7.0
2023-05-15T07:00:00.636Z,8.2
2023-05-15T07:10:00.600Z,10.2
2023-05-15T07:20:00.648Z,11.0
2023-05-15T07:30:00.647Z,11.2
2023-05-15T07:40:00.707Z,11.1
2023-05-15T07:50:00.593Z,9.5
2023-05-15T08:00:00.759Z,9.7
2023-05-15T08:10:00.620Z,9.1
2023-05-15T08:20:00.607Z,12.0
2023-05-15T08:30:00.587Z,11.5
2023-05-15T08:40:00.607Z,12.4
2023-05-15T08:50:00.747Z,14.6
2023-05-15T09:00:00.618Z,12.0
2023-05-15T09:10:00.750Z,9.8
2023-05-15T09:20:00.643Z,8.5
2023-05-15T09:30:00.606Z,6.9
2023-05-15T09:40:00.624Z,6.3
2023-05-15T09:50:00.633Z,6.9
2023-05-15T10:00:00.595Z,5.1
2023-05-15T10:10:00.649Z,5.0
2023-05-15T10:20:00.837Z,6.0
2023-05-15T10:30:00.652Z,5.2
2023-05-15T10:40:00.639Z,4.5
2023-05-15T10:50:00.629Z,4.5
2023-05-15T11:00:00.616Z,6.0
2023-05-15T11:10:00.617Z,4.3
2023-05-15T11:20:00.705Z,4.4
2023-05-15T11:30:00.760Z,4.1
2023-05-15T11:40:00.654Z,3.9
2023-05-15T11:50:00.616Z,2.9
2023-05-15T12:00:00.583Z,2.7
2023-05-15T12:10:00.606Z,1.8
2023-05-15T12:20:00.593Z,1.8
2023-05-15T12:30:00.596Z,1.4
2023-05-15T12:40:00.765Z,1.3
2023-05-15T12:50:00.605Z,1.7
2023-05-15T13:00:00.614Z,1.7
2023-05-15T13:10:00.587Z,1.5
2023-05-15T13:20:00.638Z,1.7
2023-05-15T13:30:00.615Z,1.5
2023-05-15T13:40:00.627Z,1.6
2023-05-15T13:50:00.687Z,1.7
2023-05-15T14:00:00.674Z,1.9
2023-05-15T14:10:00.592Z,2.1
2023-05-15T14:20:00.660Z,2.1
2023-05-15T14:30:00.607Z,2.4
2023-05-15T14:40:00.683Z,2.3
2023-05-15T14:50:00.622Z,2.1
2023-05-15T15:00:00.799Z,2.5
2023-05-15T15:10:00.582Z,1.6
2023-05-15T15:20:00.609Z,1.5
2023-05-15T15:30:00.587Z,1.5
2023-05-15T15:40:00.636Z,1.3
2023-05-15T15:50:00.616Z,1.3
2023-05-15T16:00:00.597Z,0.8
2023-05-15T16:10:11.964Z,0.7
2023-05-15T16:20:00.631Z,0.7
2023-05-15T16:30:00.907Z,0.8
2023-05-15T16:40:00.637Z,1.3
2023-05-15T16:50:00.620Z,1.0
2023-05-15T17:00:00.615Z,2.0
2023-05-15T17:10:00.620Z,1.1
2023-05-15T17:20:02.626Z,0.6
2023-05-15T17:30:00.632Z,1.3
2023-05-15T17:40:00.604Z,0.9
2023-05-15T17:50:00.657Z,1.3
2023-05-15T18:00:00.624Z,1.3
2023-05-15T18:10:00.621Z,1.4
2023-05-15T18:20:00.594Z,0.8
2023-05-15T18:30:00.750Z,1.0
2023-05-15T18:40:00.639Z,1.1
2023-05-15T18:50:00.614Z,1.0
2023-05-15T19:00:00.609Z,1.3
2023-05-15T19:10:00.634Z,2.3
2023-05-15T19:20:00.599Z,2.8
2023-05-15T19:30:00.631Z,1.5
2023-05-15T19:40:00.697Z,1.6
2023-05-15T19:50:00.595Z,2.0
2023-05-15T20:00:00.627Z,1.4
2023-05-15T20:10:00.655Z,1.8
2023-05-15T20:20:00.597Z,2.0
2023-05-15T20:30:00.596Z,1.6
2023-05-15T20:40:00.630Z,1.1
2023-05-15T20:50:00.754Z,2.5
2023-05-15T21:00:00.594Z,1.8
2023-05-15T21:10:00.599Z,2.0
2023-05-15T21:20:00.613Z,1.2
2023-05-15T21:30:00.610Z,1.3
2023-05-15T21:40:00.608Z,1.9
2023-05-15T21:50:00.632Z,1.5
2023-05-15T22:00:00.776Z,1.0
2023-05-15T22:10:00.615Z,0.8
2023-05-15T22:20:00.607Z,1.0
2023-05-15T22:30:00.607Z,1.1
2023-05-15T22:40:00.602Z,1.3
2023-05-15T22:50:00.599Z,1.9
2023-05-15T23:00:00.627Z,1.2
2023-05-15T23:10:00.673Z,0.9
2023-05-15T23:20:00.609Z,1.2
2023-05-15T23:30:00.596Z,1.6
2023-05-15T23:40:00.606Z,1.1
2023-05-15T23:50:00.615Z,1.5
